Terminal Aerodrome Forecast
Issued by NWS

Home | Current Version | Previous Version | Text Only | Print | Product List | Glossary On
Versions: 1 2 3 4 5 6 7 8 9 10 11 12 13 14 15 16 17 18 19 20 21 22 23 24 25 26 27
000
FTUS44 KHGX 271120
TAFLBX
TAF
KLBX 271120Z 2712/2812 01007KT P6SM SCT050 BKN250
     FM271400 04009KT P6SM VCSH SCT035 BKN250
     FM271900 09011KT P6SM VCTS SCT035CB BKN250
     FM280100 10004KT P6SM BKN250=

USA.gov is the U.S. government's official web portal to all federal, state and local government web resources and services.